createdAt,value
2023-03-08T00:00:16.004Z,3.10
2023-03-08T00:02:43.215Z,3.33
2023-03-08T00:05:11.181Z,3.50
2023-03-08T00:07:38.725Z,4.68
2023-03-08T00:10:06.711Z,3.80
2023-03-08T00:12:34.287Z,4.10
2023-03-08T00:15:01.530Z,4.07
2023-03-08T00:17:28.733Z,4.03
2023-03-08T00:19:56.240Z,4.25
2023-03-08T00:22:23.863Z,4.00
2023-03-08T00:24:52.680Z,5.43
2023-03-08T00:27:19.916Z,4.65
2023-03-08T00:29:47.201Z,4.80
2023-03-08T00:32:16.918Z,5.13
2023-03-08T00:34:46.998Z,4.97
2023-03-08T00:37:14.984Z,4.65
2023-03-08T00:39:42.304Z,5.22
2023-03-08T00:42:09.557Z,4.95
2023-03-08T00:44:36.957Z,4.75
2023-03-08T00:47:04.217Z,4.95
2023-03-08T00:49:31.444Z,5.53
2023-03-08T00:51:58.644Z,5.72
2023-03-08T00:54:26.007Z,6.85
2023-03-08T00:56:53.218Z,6.93
2023-03-08T00:59:20.500Z,6.45
2023-03-08T01:01:47.743Z,6.38
2023-03-08T01:04:15.222Z,8.10
2023-03-08T01:06:45.668Z,7.35
2023-03-08T01:09:13.376Z,7.65
2023-03-08T01:11:41.077Z,7.95
2023-03-08T01:14:08.960Z,7.38
2023-03-08T01:16:36.172Z,7.95
2023-03-08T01:19:03.845Z,7.80
2023-03-08T01:21:31.746Z,8.93
2023-03-08T01:23:59.397Z,8.93
2023-03-08T01:26:27.874Z,8.40
2023-03-08T01:28:55.365Z,9.70
2023-03-08T01:31:25.411Z,9.50
2023-03-08T01:33:52.927Z,8.82
2023-03-08T01:36:22.994Z,9.73
2023-03-08T01:38:50.665Z,10.43
2023-03-08T01:41:24.426Z,10.10
2023-03-08T01:43:52.210Z,10.50
2023-03-08T01:46:30.503Z,9.77
2023-03-08T01:49:24.203Z,10.30
2023-03-08T01:52:02.822Z,11.23
2023-03-08T01:54:37.822Z,10.25
2023-03-08T01:57:13.592Z,10.90
2023-03-08T01:59:40.819Z,10.45
2023-03-08T02:02:08.106Z,10.93
2023-03-08T02:04:36.189Z,10.35
2023-03-08T02:07:03.439Z,10.52
2023-03-08T02:09:33.502Z,11.40
2023-03-08T02:12:02.995Z,11.02
2023-03-08T02:14:30.354Z,11.65
2023-03-08T02:16:57.637Z,11.45
2023-03-08T02:19:28.502Z,11.25
2023-03-08T02:21:55.729Z,11.98
2023-03-08T02:24:24.764Z,11.63
2023-03-08T02:27:01.876Z,12.35
2023-03-08T02:29:29.310Z,12.25
2023-03-08T02:31:56.538Z,12.77
2023-03-08T02:34:23.791Z,12.82
2023-03-08T02:36:51.031Z,11.85
2023-03-08T02:39:18.287Z,12.65
2023-03-08T02:41:45.571Z,12.65
2023-03-08T02:44:12.770Z,12.02
2023-03-08T02:46:39.979Z,12.25
2023-03-08T02:49:07.212Z,12.52
2023-03-08T02:51:34.416Z,13.65
2023-03-08T02:54:01.610Z,12.57
2023-03-08T02:56:28.818Z,12.75
2023-03-08T02:58:56.088Z,12.77
2023-03-08T03:01:23.684Z,12.27
2023-03-08T03:03:53.103Z,12.38
2023-03-08T03:08:47.987Z,12.23
2023-03-08T03:11:17.376Z,13.70
2023-03-08T03:16:14.586Z,12.68
2023-03-08T03:18:42.151Z,13.35
2023-03-08T03:21:12.379Z,13.48
2023-03-08T03:23:40.482Z,13.43
2023-03-08T03:26:13.056Z,14.18
2023-03-08T03:28:40.616Z,13.35
2023-03-08T03:31:13.379Z,13.65
2023-03-08T03:33:40.975Z,12.95
2023-03-08T03:36:10.070Z,12.27
2023-03-08T03:38:37.557Z,12.70
2023-03-08T03:41:09.837Z,12.45
2023-03-08T03:43:37.945Z,12.23
2023-03-08T03:46:07.385Z,12.75
2023-03-08T03:48:38.738Z,12.43
2023-03-08T03:51:09.429Z,12.68
2023-03-08T03:53:36.684Z,11.52
2023-03-08T03:56:25.038Z,12.02
2023-03-08T03:58:52.323Z,11.43
2023-03-08T04:01:27.685Z,11.82
2023-03-08T04:03:55.932Z,11.10
2023-03-08T04:06:25.617Z,11.02
2023-03-08T04:08:54.794Z,11.65
2023-03-08T04:11:24.242Z,10.77
2023-03-08T04:13:51.560Z,10.55
2023-03-08T04:16:26.696Z,11.43
2023-03-08T04:18:57.182Z,11.50
2023-03-08T04:21:24.952Z,12.10
2023-03-08T04:23:52.702Z,10.95
2023-03-08T04:26:20.791Z,11.80
2023-03-08T04:28:50.187Z,11.15
2023-03-08T04:33:45.652Z,10.98
2023-03-08T04:36:13.476Z,11.93
2023-03-08T04:38:40.841Z,10.80
2023-03-08T04:41:14.334Z,11.15
2023-03-08T04:43:49.285Z,11.52
2023-03-08T04:46:17.517Z,11.27
2023-03-08T04:48:45.475Z,11.52
2023-03-08T04:51:13.950Z,12.20
2023-03-08T04:53:44.397Z,11.57
2023-03-08T04:56:13.154Z,11.10
2023-03-08T04:58:40.406Z,10.88
2023-03-08T05:01:19.171Z,11.57
2023-03-08T05:03:52.185Z,11.50
2023-03-08T05:06:20.097Z,11.75
2023-03-08T05:08:47.541Z,11.32
2023-03-08T05:11:24.574Z,12.00
2023-03-08T05:13:53.955Z,12.20
2023-03-08T05:18:48.722Z,13.05
2023-03-08T05:21:18.598Z,12.63
2023-03-08T05:23:46.114Z,13.52
2023-03-08T05:26:15.909Z,12.68
2023-03-08T05:28:43.425Z,11.38
2023-03-08T05:31:21.340Z,12.52
2023-03-08T05:33:51.065Z,11.30
2023-03-08T05:36:19.140Z,11.85
2023-03-08T05:38:46.791Z,11.50
2023-03-08T05:41:15.917Z,10.32
2023-03-08T05:43:43.525Z,11.75
2023-03-08T05:46:19.316Z,11.63
2023-03-08T05:48:46.589Z,11.55
2023-03-08T05:51:18.901Z,12.13
2023-03-08T05:53:46.353Z,11.35
2023-03-08T05:56:16.290Z,12.05
2023-03-08T05:58:45.632Z,11.70
2023-03-08T06:01:22.823Z,11.32
2023-03-08T06:03:52.399Z,11.18
2023-03-08T06:06:21.318Z,12.25
2023-03-08T06:08:48.633Z,11.90
2023-03-08T06:11:16.094Z,11.38
2023-03-08T06:13:43.415Z,12.70
2023-03-08T06:16:10.945Z,11.65
2023-03-08T06:18:40.023Z,12.02
2023-03-08T06:21:10.261Z,11.70
2023-03-08T06:23:38.138Z,11.60
2023-03-08T06:26:06.758Z,12.82
2023-03-08T06:28:34.572Z,11.95
2023-03-08T06:31:01.966Z,12.65
2023-03-08T06:33:31.373Z,12.80
2023-03-08T06:38:33.274Z,12.93
2023-03-08T06:41:01.055Z,12.50
2023-03-08T06:43:28.817Z,12.63
2023-03-08T06:45:56.284Z,13.27
2023-03-08T06:48:28.758Z,13.80
2023-03-08T06:50:55.997Z,13.43
2023-03-08T06:53:23.243Z,13.93
2023-03-08T06:55:50.490Z,16.08
2023-03-08T06:58:17.736Z,16.95
2023-03-08T07:00:44.980Z,15.38
2023-03-08T07:03:12.976Z,15.82
2023-03-08T07:05:40.573Z,15.35
2023-03-08T07:08:08.123Z,14.57
2023-03-08T07:10:35.595Z,14.15
2023-03-08T07:13:03.005Z,13.63
2023-03-08T07:15:30.358Z,15.00
2023-03-08T07:17:57.955Z,14.50
2023-03-08T07:20:26.801Z,13.10
2023-03-08T07:22:54.842Z,13.95
2023-03-08T07:25:22.145Z,14.10
2023-03-08T07:27:49.370Z,14.02
2023-03-08T07:30:17.183Z,14.82
2023-03-08T07:32:44.605Z,13.18
2023-03-08T07:35:14.122Z,13.43
2023-03-08T07:40:12.153Z,12.35
2023-03-08T07:42:39.703Z,12.90
2023-03-08T07:45:07.562Z,13.15
2023-03-08T07:47:35.197Z,11.93
2023-03-08T07:50:02.583Z,12.25
2023-03-08T07:52:38.375Z,12.98
2023-03-08T07:55:06.429Z,12.60
2023-03-08T07:57:36.102Z,11.63
2023-03-08T08:00:07.695Z,11.98
2023-03-08T08:02:35.585Z,11.07
2023-03-08T08:05:04.635Z,10.50
2023-03-08T08:07:32.059Z,10.15
2023-03-08T08:09:59.247Z,9.93
2023-03-08T08:12:26.469Z,9.85
2023-03-08T08:14:54.013Z,8.95
2023-03-08T08:17:21.500Z,8.85
2023-03-08T08:19:49.247Z,9.23
2023-03-08T08:22:16.602Z,9.50
2023-03-08T08:24:44.094Z,7.38
2023-03-08T08:27:12.776Z,8.95
2023-03-08T08:29:42.063Z,8.52
2023-03-08T08:32:09.292Z,8.00
2023-03-08T08:34:36.653Z,8.07
2023-03-08T08:37:04.648Z,7.72
2023-03-08T08:39:31.977Z,7.55
2023-03-08T08:41:59.464Z,7.80
2023-03-08T08:44:26.703Z,8.40
2023-03-08T08:46:53.970Z,8.18
2023-03-08T08:49:21.279Z,7.57
2023-03-08T08:51:48.481Z,9.00
2023-03-08T08:54:16.319Z,8.48
2023-03-08T08:56:43.701Z,9.15
2023-03-08T08:59:16.288Z,7.55
2023-03-08T09:01:44.081Z,8.23
2023-03-08T09:04:16.766Z,9.95
2023-03-08T09:06:44.516Z,10.05
2023-03-08T09:09:11.717Z,9.75
2023-03-08T09:11:53.323Z,9.50
2023-03-08T09:14:21.273Z,11.10
2023-03-08T09:16:48.662Z,10.13
2023-03-08T09:19:16.040Z,10.10
2023-03-08T09:21:43.351Z,10.60
2023-03-08T09:24:13.198Z,9.43
2023-03-08T09:26:40.474Z,10.07
2023-03-08T09:29:08.044Z,9.02
2023-03-08T09:31:37.125Z,8.27
2023-03-08T09:34:09.318Z,7.93
2023-03-08T09:36:41.760Z,7.63
2023-03-08T09:39:11.093Z,7.57
2023-03-08T09:44:48.745Z,6.70
2023-03-08T09:47:40.152Z,7.68
2023-03-08T09:50:13.552Z,7.63
2023-03-08T09:52:43.561Z,7.78
2023-03-08T09:55:30.538Z,7.10
2023-03-08T09:58:16.607Z,6.18
2023-03-08T10:00:46.634Z,6.78
2023-03-08T10:03:31.733Z,7.00
2023-03-08T10:06:12.559Z,6.88
2023-03-08T10:09:04.276Z,6.65
2023-03-08T10:11:37.743Z,6.10
2023-03-08T10:14:19.829Z,5.25
2023-03-08T10:16:52.383Z,4.82
2023-03-08T10:19:33.862Z,4.43
2023-03-08T10:22:15.700Z,4.70
2023-03-08T10:25:02.657Z,5.20
2023-03-08T10:27:33.990Z,4.55
2023-03-08T10:30:02.650Z,4.00
2023-03-08T10:32:30.073Z,4.90
2023-03-08T10:35:05.216Z,4.85
2023-03-08T10:37:33.826Z,3.97
2023-03-08T10:40:06.109Z,4.47
2023-03-08T10:42:33.912Z,4.38
2023-03-08T10:45:10.704Z,4.10
2023-03-08T10:47:38.849Z,4.15
2023-03-08T10:50:19.789Z,3.95
2023-03-08T10:52:49.102Z,5.05
2023-03-08T10:55:25.928Z,4.40
2023-03-08T10:57:54.398Z,4.32
2023-03-08T11:00:24.510Z,4.10
2023-03-08T11:03:03.576Z,4.30
2023-03-08T11:05:31.013Z,3.85
2023-03-08T11:07:59.730Z,4.30
2023-03-08T11:10:28.521Z,4.53
2023-03-08T11:13:26.328Z,5.03
2023-03-08T11:16:29.075Z,4.80
2023-03-08T11:19:34.068Z,4.82
2023-03-08T11:22:02.364Z,5.25
2023-03-08T11:25:08.468Z,4.90
2023-03-08T11:27:44.784Z,4.72
2023-03-08T11:30:22.917Z,5.50
2023-03-08T11:33:08.520Z,6.03
2023-03-08T11:35:58.827Z,5.57
2023-03-08T11:38:28.573Z,5.88
2023-03-08T11:41:28.720Z,6.25
2023-03-08T11:44:05.118Z,4.88
2023-03-08T11:46:52.572Z,4.88
2023-03-08T11:49:29.745Z,5.38
2023-03-08T11:52:22.072Z,4.57
2023-03-08T11:55:20.976Z,5.32
2023-03-08T11:57:53.286Z,4.78
2023-03-08T12:00:28.467Z,5.30
2023-03-08T12:02:57.555Z,5.82
2023-03-08T12:05:30.239Z,5.20
2023-03-08T12:08:17.263Z,5.20
2023-03-08T12:10:57.402Z,5.30
2023-03-08T12:13:34.154Z,5.07
2023-03-08T12:16:19.878Z,5.20
2023-03-08T12:19:12.255Z,5.50
2023-03-08T12:22:00.706Z,4.78
2023-03-08T12:24:55.707Z,5.20
2023-03-08T12:27:28.905Z,4.70
2023-03-08T12:30:02.044Z,4.47
2023-03-08T12:32:31.468Z,5.15
2023-03-08T12:35:05.773Z,4.80
2023-03-08T12:37:33.455Z,5.38
2023-03-08T12:40:07.365Z,5.43
2023-03-08T12:42:39.984Z,5.32
2023-03-08T12:45:23.311Z,5.25
2023-03-08T12:48:05.758Z,5.07
2023-03-08T12:51:00.164Z,5.50
2023-03-08T12:53:50.953Z,4.85
2023-03-08T12:56:31.785Z,4.65
2023-03-08T12:59:02.667Z,5.55
2023-03-08T13:01:45.174Z,5.80
2023-03-08T13:04:41.678Z,5.68
2023-03-08T13:07:28.669Z,5.35
2023-03-08T13:10:04.096Z,4.97
2023-03-08T13:13:02.060Z,5.70
2023-03-08T13:15:29.396Z,5.75
2023-03-08T13:18:08.430Z,5.28
2023-03-08T13:20:50.261Z,5.13
2023-03-08T13:23:25.121Z,5.72
2023-03-08T13:26:04.924Z,5.45
2023-03-08T13:28:46.606Z,5.30
2023-03-08T13:31:18.472Z,5.47
2023-03-08T13:33:53.181Z,4.85
2023-03-08T13:36:24.774Z,6.20
2023-03-08T13:39:22.814Z,7.25
2023-03-08T13:41:50.408Z,7.85
2023-03-08T13:44:19.159Z,7.47
2023-03-08T13:46:47.007Z,6.70
2023-03-08T13:49:20.571Z,8.05
2023-03-08T13:51:50.521Z,8.63
2023-03-08T13:54:29.424Z,7.30
2023-03-08T13:57:02.845Z,7.78
2023-03-08T13:59:31.715Z,6.65
2023-03-08T14:01:59.062Z,6.22
2023-03-08T14:04:29.378Z,6.78
2023-03-08T14:06:58.867Z,7.63
2023-03-08T14:09:26.611Z,7.22
2023-03-08T14:12:04.838Z,7.50
2023-03-08T14:14:37.858Z,7.40
2023-03-08T14:17:05.391Z,6.40
2023-03-08T14:19:40.318Z,6.90
2023-03-08T14:22:14.453Z,6.38
2023-03-08T14:24:42.938Z,6.63
2023-03-08T14:27:16.147Z,6.80
2023-03-08T14:29:44.695Z,6.85
2023-03-08T14:32:12.142Z,7.20
2023-03-08T14:34:44.720Z,6.65
2023-03-08T14:37:11.841Z,7.82
2023-03-08T14:39:44.669Z,8.73
2023-03-08T14:42:34.113Z,7.95
2023-03-08T14:45:18.595Z,9.48
2023-03-08T14:47:58.211Z,7.65
2023-03-08T14:50:30.616Z,7.45
2023-03-08T14:52:59.812Z,7.25
2023-03-08T14:55:30.866Z,7.47
2023-03-08T14:58:04.263Z,7.03
2023-03-08T15:00:32.306Z,6.22
2023-03-08T15:03:00.163Z,6.97
2023-03-08T15:05:30.050Z,6.40
2023-03-08T15:07:59.205Z,7.63
2023-03-08T15:10:33.807Z,7.05
2023-03-08T15:13:01.200Z,7.88
2023-03-08T15:15:28.488Z,7.68
2023-03-08T15:17:55.801Z,8.40
2023-03-08T15:20:23.451Z,8.18
2023-03-08T15:22:53.048Z,9.35
2023-03-08T15:25:27.623Z,8.60
2023-03-08T15:27:54.902Z,9.93
2023-03-08T15:30:25.539Z,10.05
2023-03-08T15:32:52.921Z,9.35
2023-03-08T15:35:20.190Z,9.60
2023-03-08T15:37:47.451Z,9.05
2023-03-08T15:40:18.259Z,10.30
2023-03-08T15:42:46.410Z,9.63
2023-03-08T15:45:14.926Z,9.98
2023-03-08T15:47:42.572Z,8.53
2023-03-08T15:50:18.698Z,7.78
2023-03-08T15:52:46.181Z,7.45
2023-03-08T15:55:14.254Z,6.88
2023-03-08T15:57:41.898Z,7.93
2023-03-08T16:00:11.619Z,8.32
2023-03-08T16:02:39.583Z,7.07
2023-03-08T16:05:08.515Z,8.35
2023-03-08T16:07:35.862Z,8.05
2023-03-08T16:10:04.839Z,7.43
2023-03-08T16:12:32.068Z,7.93
2023-03-08T16:14:59.325Z,7.93
2023-03-08T16:17:28.754Z,8.35
2023-03-08T16:22:23.096Z,8.48
2023-03-08T16:24:50.326Z,8.27
2023-03-08T16:27:17.579Z,10.40
2023-03-08T16:29:44.927Z,10.40
2023-03-08T16:32:15.281Z,11.68
2023-03-08T16:34:42.499Z,12.38
2023-03-08T16:37:09.798Z,12.13
2023-03-08T16:39:36.994Z,11.90
2023-03-08T16:42:04.264Z,10.77
2023-03-08T16:44:31.452Z,10.32
2023-03-08T16:46:58.656Z,11.02
2023-03-08T16:49:28.497Z,10.63
2023-03-08T16:51:56.482Z,11.18
2023-03-08T16:54:24.194Z,11.30
2023-03-08T16:56:51.412Z,12.40
2023-03-08T16:59:18.764Z,11.23
2023-03-08T17:01:47.360Z,12.65
2023-03-08T17:04:14.638Z,14.20
2023-03-08T17:06:44.163Z,16.95
2023-03-08T17:09:12.063Z,16.50
2023-03-08T17:11:39.286Z,18.38
2023-03-08T17:14:11.197Z,16.23
2023-03-08T17:16:39.914Z,14.52
2023-03-08T17:19:10.734Z,13.55
2023-03-08T17:21:38.388Z,14.80
2023-03-08T17:24:12.957Z,14.80
2023-03-08T17:26:47.477Z,15.45
2023-03-08T17:29:15.206Z,16.15
2023-03-08T17:31:52.050Z,17.27
2023-03-08T17:34:23.068Z,16.05
2023-03-08T17:36:51.203Z,17.08
2023-03-08T17:39:18.695Z,15.82
2023-03-08T17:41:46.335Z,18.98
2023-03-08T17:44:14.331Z,19.27
2023-03-08T17:46:41.741Z,19.58
2023-03-08T17:49:09.017Z,19.88
2023-03-08T17:51:36.260Z,20.55
2023-03-08T17:54:04.213Z,19.05
2023-03-08T17:56:36.903Z,19.23
2023-03-08T17:59:04.258Z,16.83
2023-03-08T18:01:32.267Z,16.90
2023-03-08T18:04:00.114Z,15.13
2023-03-08T18:06:33.477Z,15.13
2023-03-08T18:09:06.561Z,15.10
2023-03-08T18:11:37.522Z,15.30
2023-03-08T18:14:06.716Z,16.52
2023-03-08T18:16:34.140Z,16.70
2023-03-08T18:19:05.890Z,16.55
2023-03-08T18:21:34.599Z,18.95
2023-03-08T18:24:05.060Z,17.05
2023-03-08T18:26:32.633Z,15.43
2023-03-08T18:29:00.993Z,16.15
2023-03-08T18:31:31.018Z,13.75
2023-03-08T18:33:58.530Z,14.43
2023-03-08T18:36:25.743Z,14.80
2023-03-08T18:38:53.014Z,15.30
2023-03-08T18:41:22.861Z,16.05
2023-03-08T18:43:51.331Z,15.20
2023-03-08T18:46:19.327Z,14.13
2023-03-08T18:48:50.950Z,13.43
2023-03-08T18:51:18.205Z,13.32
2023-03-08T18:53:45.471Z,14.40
2023-03-08T18:56:12.656Z,13.70
2023-03-08T18:58:39.939Z,13.65
2023-03-08T19:01:15.728Z,14.98
2023-03-08T19:03:44.133Z,13.45
2023-03-08T19:06:12.505Z,14.70
2023-03-08T19:08:40.027Z,13.75
2023-03-08T19:11:14.438Z,14.85
2023-03-08T19:13:42.976Z,14.23
2023-03-08T19:16:24.003Z,14.90
2023-03-08T19:18:54.009Z,14.43
2023-03-08T19:21:23.392Z,14.70
2023-03-08T19:26:37.508Z,14.38
2023-03-08T19:29:14.383Z,14.63
2023-03-08T19:31:44.299Z,15.88
2023-03-08T19:34:13.577Z,15.35
2023-03-08T19:36:42.161Z,16.23
2023-03-08T19:39:15.466Z,15.60
2023-03-08T19:41:43.529Z,17.98
2023-03-08T19:44:11.047Z,16.02
2023-03-08T19:46:39.457Z,15.35
2023-03-08T19:49:08.583Z,14.00
2023-03-08T19:51:36.301Z,13.00
2023-03-08T19:54:03.742Z,13.25
2023-03-08T19:56:30.970Z,14.48
2023-03-08T19:58:59.290Z,14.40
2023-03-08T20:01:27.031Z,14.32
2023-03-08T20:03:54.982Z,15.30
2023-03-08T20:06:24.229Z,13.73
2023-03-08T20:08:51.918Z,13.88
2023-03-08T20:11:21.026Z,12.27
2023-03-08T20:13:48.260Z,14.40
2023-03-08T20:16:16.179Z,14.40
2023-03-08T20:18:43.551Z,14.30
2023-03-08T20:21:10.797Z,15.00
2023-03-08T20:23:38.295Z,14.75
2023-03-08T20:26:06.213Z,14.13
2023-03-08T20:28:33.576Z,13.93
2023-03-08T20:31:01.016Z,14.52
2023-03-08T20:33:28.266Z,14.52
2023-03-08T20:35:59.702Z,13.38
2023-03-08T20:38:28.533Z,12.85
2023-03-08T20:41:15.965Z,13.70
2023-03-08T20:43:44.914Z,13.70
2023-03-08T20:46:14.242Z,14.88
2023-03-08T20:48:43.323Z,14.23
2023-03-08T20:51:15.845Z,15.00
2023-03-08T20:53:44.485Z,16.40
2023-03-08T20:56:15.767Z,15.80
2023-03-08T20:58:43.281Z,16.02
2023-03-08T21:01:19.400Z,16.17
2023-03-08T21:03:47.892Z,15.70
2023-03-08T21:06:18.968Z,15.33
2023-03-08T21:08:46.554Z,14.63
2023-03-08T21:11:14.151Z,14.13
2023-03-08T21:13:41.779Z,13.73
2023-03-08T21:16:13.694Z,14.38
2023-03-08T21:18:46.741Z,14.40
2023-03-08T21:21:28.331Z,16.65
2023-03-08T21:23:57.931Z,15.18
2023-03-08T21:26:26.895Z,14.95
2023-03-08T21:28:56.798Z,14.48
2023-03-08T21:31:24.902Z,13.85
2023-03-08T21:33:53.576Z,14.27
2023-03-08T21:36:20.844Z,13.38
2023-03-08T21:38:53.694Z,14.13
2023-03-08T21:41:23.298Z,14.35
2023-03-08T21:43:51.167Z,14.20
2023-03-08T21:46:18.951Z,14.50
2023-03-08T21:48:46.658Z,15.05
2023-03-08T21:51:14.351Z,15.35
2023-03-08T21:53:58.502Z,15.30
2023-03-08T21:56:27.914Z,16.35
2023-03-08T22:01:31.299Z,14.93
2023-03-08T22:03:59.953Z,15.90
2023-03-08T22:06:27.748Z,15.70
2023-03-08T22:08:56.410Z,16.40
2023-03-08T22:11:24.716Z,15.77
2023-03-08T22:13:59.631Z,17.00
2023-03-08T22:16:28.418Z,16.05
2023-03-08T22:18:57.858Z,17.13
2023-03-08T22:23:57.750Z,17.80
2023-03-08T22:26:27.596Z,18.30
2023-03-08T22:28:55.162Z,18.02
2023-03-08T22:31:24.252Z,19.17
2023-03-08T22:33:51.809Z,20.45
2023-03-08T22:36:20.137Z,18.58
2023-03-08T22:38:47.774Z,18.63
2023-03-08T22:41:18.039Z,20.88
2023-03-08T22:43:45.992Z,18.63
2023-03-08T22:46:16.192Z,19.63
2023-03-08T22:48:44.419Z,18.45
2023-03-08T22:51:12.553Z,17.80
2023-03-08T22:53:40.702Z,17.02
2023-03-08T22:56:15.269Z,17.40
2023-03-08T22:58:42.497Z,15.02
2023-03-08T23:01:16.665Z,16.77
2023-03-08T23:03:44.682Z,15.07
2023-03-08T23:06:11.932Z,14.60
2023-03-08T23:08:39.724Z,13.75
2023-03-08T23:11:07.629Z,14.25
2023-03-08T23:13:35.220Z,13.50
2023-03-08T23:16:03.415Z,14.38
2023-03-08T23:18:30.701Z,14.35
2023-03-08T23:21:06.373Z,14.23
2023-03-08T23:23:34.112Z,12.90
2023-03-08T23:26:06.049Z,13.93
2023-03-08T23:28:35.510Z,13.40
2023-03-08T23:31:17.284Z,14.52
2023-03-08T23:33:44.703Z,14.77
2023-03-08T23:36:16.266Z,15.55
2023-03-08T23:38:43.914Z,15.13
2023-03-08T23:41:14.365Z,13.77
2023-03-08T23:43:41.943Z,14.13
2023-03-08T23:46:12.077Z,13.65
2023-03-08T23:48:39.468Z,13.73
2023-03-08T23:51:08.489Z,13.40
2023-03-08T23:53:36.195Z,13.52
2023-03-08T23:56:04.260Z,14.95
2023-03-08T23:58:32.160Z,14.13
